sensor_id;sensor_type;location;lat;lon;timestamp;P1;durP1;ratioP1;P2;durP2;ratioP2
35364;SDS011;21464;48.112;11.530;2023-04-24T00:00:55;1.25;;;1.25;;
35364;SDS011;21464;48.112;11.530;2023-04-24T00:03:26;1.10;;;1.10;;
35364;SDS011;21464;48.112;11.530;2023-04-24T00:05:54;1.67;;;1.08;;
35364;SDS011;21464;48.112;11.530;2023-04-24T00:08:20;1.17;;;1.15;;
35364;SDS011;21464;48.112;11.530;2023-04-24T00:10:48;1.25;;;1.20;;
35364;SDS011;21464;48.112;11.530;2023-04-24T00:13:14;1.60;;;1.13;;
35364;SDS011;21464;48.112;11.530;2023-04-24T00:15:40;1.00;;;1.00;;
35364;SDS011;21464;48.112;11.530;2023-04-24T00:18:07;0.80;;;0.80;;
35364;SDS011;21464;48.112;11.530;2023-04-24T00:20:33;0.95;;;0.95;;
35364;SDS011;21464;48.112;11.530;2023-04-24T00:23:01;1.38;;;0.88;;
35364;SDS011;21464;48.112;11.530;2023-04-24T00:25:27;1.38;;;1.10;;
35364;SDS011;21464;48.112;11.530;2023-04-24T00:27:53;1.17;;;1.17;;
35364;SDS011;21464;48.112;11.530;2023-04-24T00:30:20;0.85;;;0.85;;
35364;SDS011;21464;48.112;11.530;2023-04-24T00:32:46;0.80;;;0.80;;
35364;SDS011;21464;48.112;11.530;2023-04-24T00:35:12;1.00;;;1.00;;
35364;SDS011;21464;48.112;11.530;2023-04-24T00:37:40;1.00;;;1.00;;
35364;SDS011;21464;48.112;11.530;2023-04-24T00:40:06;1.65;;;1.00;;
35364;SDS011;21464;48.112;11.530;2023-04-24T00:42:33;1.20;;;1.00;;
35364;SDS011;21464;48.112;11.530;2023-04-24T00:45:00;1.08;;;1.00;;
35364;SDS011;21464;48.112;11.530;2023-04-24T00:47:26;1.10;;;1.00;;
35364;SDS011;21464;48.112;11.530;2023-04-24T00:49:53;0.93;;;0.93;;
35364;SDS011;21464;48.112;11.530;2023-04-24T00:52:19;1.00;;;1.00;;
35364;SDS011;21464;48.112;11.530;2023-04-24T00:54:46;0.80;;;0.80;;
35364;SDS011;21464;48.112;11.530;2023-04-24T00:57:12;0.98;;;0.98;;
35364;SDS011;21464;48.112;11.530;2023-04-24T00:59:41;0.80;;;0.80;;
35364;SDS011;21464;48.112;11.530;2023-04-24T01:02:08;0.80;;;0.80;;
35364;SDS011;21464;48.112;11.530;2023-04-24T01:04:36;0.70;;;0.70;;
35364;SDS011;21464;48.112;11.530;2023-04-24T01:07:04;0.85;;;0.75;;
35364;SDS011;21464;48.112;11.530;2023-04-24T01:09:36;0.70;;;0.70;;
35364;SDS011;21464;48.112;11.530;2023-04-24T01:12:04;0.60;;;0.60;;
35364;SDS011;21464;48.112;11.530;2023-04-24T01:14:31;0.70;;;0.70;;
35364;SDS011;21464;48.112;11.530;2023-04-24T01:16:57;0.93;;;0.93;;
35364;SDS011;21464;48.112;11.530;2023-04-24T01:19:23;0.80;;;0.80;;
35364;SDS011;21464;48.112;11.530;2023-04-24T01:21:50;0.70;;;0.70;;
35364;SDS011;21464;48.112;11.530;2023-04-24T01:24:17;0.75;;;0.70;;
35364;SDS011;21464;48.112;11.530;2023-04-24T01:26:45;0.80;;;0.80;;
35364;SDS011;21464;48.112;11.530;2023-04-24T01:29:12;0.55;;;0.55;;
35364;SDS011;21464;48.112;11.530;2023-04-24T01:31:39;0.70;;;0.70;;
35364;SDS011;21464;48.112;11.530;2023-04-24T01:34:05;0.85;;;0.60;;
35364;SDS011;21464;48.112;11.530;2023-04-24T01:36:32;2.50;;;0.80;;
35364;SDS011;21464;48.112;11.530;2023-04-24T01:38:59;0.70;;;0.70;;
35364;SDS011;21464;48.112;11.530;2023-04-24T01:41:26;0.70;;;0.70;;
35364;SDS011;21464;48.112;11.530;2023-04-24T01:43:52;1.13;;;1.10;;
35364;SDS011;21464;48.112;11.530;2023-04-24T01:46:19;0.68;;;0.68;;
35364;SDS011;21464;48.112;11.530;2023-04-24T01:48:45;1.00;;;0.90;;
35364;SDS011;21464;48.112;11.530;2023-04-24T01:51:12;1.05;;;1.02;;
35364;SDS011;21464;48.112;11.530;2023-04-24T01:53:38;1.33;;;1.23;;
35364;SDS011;21464;48.112;11.530;2023-04-24T01:56:04;1.10;;;1.10;;
35364;SDS011;21464;48.112;11.530;2023-04-24T01:58:31;1.25;;;0.80;;
35364;SDS011;21464;48.112;11.530;2023-04-24T02:00:57;0.82;;;0.70;;
35364;SDS011;21464;48.112;11.530;2023-04-24T02:03:25;1.75;;;0.90;;
35364;SDS011;21464;48.112;11.530;2023-04-24T02:05:52;0.82;;;0.77;;
35364;SDS011;21464;48.112;11.530;2023-04-24T02:08:18;0.80;;;0.80;;
35364;SDS011;21464;48.112;11.530;2023-04-24T02:10:44;0.63;;;0.60;;
35364;SDS011;21464;48.112;11.530;2023-04-24T02:13:11;0.73;;;0.73;;
35364;SDS011;21464;48.112;11.530;2023-04-24T02:15:37;0.73;;;0.73;;
35364;SDS011;21464;48.112;11.530;2023-04-24T02:18:03;0.60;;;0.60;;
35364;SDS011;21464;48.112;11.530;2023-04-24T02:20:31;0.77;;;0.77;;
35364;SDS011;21464;48.112;11.530;2023-04-24T02:22:59;0.50;;;0.50;;
35364;SDS011;21464;48.112;11.530;2023-04-24T02:25:26;2.17;;;0.90;;
35364;SDS011;21464;48.112;11.530;2023-04-24T02:27:55;0.60;;;0.60;;
35364;SDS011;21464;48.112;11.530;2023-04-24T02:30:21;0.70;;;0.70;;
35364;SDS011;21464;48.112;11.530;2023-04-24T02:32:47;1.42;;;0.50;;
35364;SDS011;21464;48.112;11.530;2023-04-24T02:35:13;0.60;;;0.60;;
35364;SDS011;21464;48.112;11.530;2023-04-24T02:37:39;0.80;;;0.80;;
35364;SDS011;21464;48.112;11.530;2023-04-24T02:40:06;0.67;;;0.67;;
35364;SDS011;21464;48.112;11.530;2023-04-24T02:42:33;0.95;;;0.70;;
35364;SDS011;21464;48.112;11.530;2023-04-24T02:44:59;0.70;;;0.70;;
35364;SDS011;21464;48.112;11.530;2023-04-24T02:47:25;0.70;;;0.70;;
35364;SDS011;21464;48.112;11.530;2023-04-24T02:49:51;0.70;;;0.70;;
35364;SDS011;21464;48.112;11.530;2023-04-24T02:52:18;0.90;;;0.90;;
35364;SDS011;21464;48.112;11.530;2023-04-24T02:54:44;0.90;;;0.90;;
35364;SDS011;21464;48.112;11.530;2023-04-24T02:57:11;0.65;;;0.65;;
35364;SDS011;21464;48.112;11.530;2023-04-24T02:59:39;0.70;;;0.70;;
35364;SDS011;21464;48.112;11.530;2023-04-24T03:02:06;0.80;;;0.80;;
35364;SDS011;21464;48.112;11.530;2023-04-24T03:04:32;0.60;;;0.60;;
35364;SDS011;21464;48.112;11.530;2023-04-24T03:06:58;0.68;;;0.68;;
35364;SDS011;21464;48.112;11.530;2023-04-24T03:09:24;0.75;;;0.65;;
35364;SDS011;21464;48.112;11.530;2023-04-24T03:11:50;0.80;;;0.80;;
35364;SDS011;21464;48.112;11.530;2023-04-24T03:14:17;2.30;;;0.83;;
35364;SDS011;21464;48.112;11.530;2023-04-24T03:16:43;0.98;;;0.75;;
35364;SDS011;21464;48.112;11.530;2023-04-24T03:19:09;0.90;;;0.90;;
35364;SDS011;21464;48.112;11.530;2023-04-24T03:21:43;0.70;;;0.70;;
35364;SDS011;21464;48.112;11.530;2023-04-24T03:24:10;0.80;;;0.80;;
35364;SDS011;21464;48.112;11.530;2023-04-24T03:26:37;0.60;;;0.60;;
35364;SDS011;21464;48.112;11.530;2023-04-24T03:29:16;0.70;;;0.70;;
35364;SDS011;21464;48.112;11.530;2023-04-24T03:31:43;0.93;;;0.82;;
35364;SDS011;21464;48.112;11.530;2023-04-24T03:34:09;0.73;;;0.73;;
35364;SDS011;21464;48.112;11.530;2023-04-24T03:36:36;1.80;;;1.03;;
35364;SDS011;21464;48.112;11.530;2023-04-24T03:39:05;1.30;;;1.00;;
35364;SDS011;21464;48.112;11.530;2023-04-24T03:41:33;1.00;;;1.00;;
35364;SDS011;21464;48.112;11.530;2023-04-24T03:44:20;2.35;;;0.90;;
35364;SDS011;21464;48.112;11.530;2023-04-24T03:46:46;1.70;;;1.20;;
35364;SDS011;21464;48.112;11.530;2023-04-24T03:49:13;1.50;;;0.90;;
35364;SDS011;21464;48.112;11.530;2023-04-24T03:51:42;0.93;;;0.90;;
35364;SDS011;21464;48.112;11.530;2023-04-24T03:54:17;1.10;;;1.10;;
35364;SDS011;21464;48.112;11.530;2023-04-24T03:56:44;0.70;;;0.70;;
35364;SDS011;21464;48.112;11.530;2023-04-24T03:59:11;1.00;;;0.80;;
35364;SDS011;21464;48.112;11.530;2023-04-24T04:01:39;0.80;;;0.80;;
35364;SDS011;21464;48.112;11.530;2023-04-24T04:04:11;0.97;;;0.97;;
35364;SDS011;21464;48.112;11.530;2023-04-24T04:06:38;1.30;;;1.20;;
35364;SDS011;21464;48.112;11.530;2023-04-24T04:09:05;1.63;;;1.53;;
35364;SDS011;21464;48.112;11.530;2023-04-24T04:11:33;1.08;;;1.08;;
35364;SDS011;21464;48.112;11.530;2023-04-24T04:13:59;0.80;;;0.80;;
35364;SDS011;21464;48.112;11.530;2023-04-24T04:16:25;0.80;;;0.80;;
35364;SDS011;21464;48.112;11.530;2023-04-24T04:18:56;0.90;;;0.90;;
35364;SDS011;21464;48.112;11.530;2023-04-24T04:21:23;2.20;;;0.90;;
35364;SDS011;21464;48.112;11.530;2023-04-24T04:23:54;3.30;;;1.83;;
35364;SDS011;21464;48.112;11.530;2023-04-24T04:26:27;1.00;;;1.00;;
35364;SDS011;21464;48.112;11.530;2023-04-24T04:29:04;1.60;;;1.42;;
35364;SDS011;21464;48.112;11.530;2023-04-24T04:31:34;5.53;;;2.78;;
35364;SDS011;21464;48.112;11.530;2023-04-24T04:34:05;1.58;;;1.48;;
35364;SDS011;21464;48.112;11.530;2023-04-24T04:36:34;1.20;;;1.05;;
35364;SDS011;21464;48.112;11.530;2023-04-24T04:39:12;1.98;;;1.60;;
35364;SDS011;21464;48.112;11.530;2023-04-24T04:41:54;3.78;;;3.00;;
35364;SDS011;21464;48.112;11.530;2023-04-24T04:44:23;1.40;;;1.30;;
35364;SDS011;21464;48.112;11.530;2023-04-24T04:46:51;2.10;;;1.73;;
35364;SDS011;21464;48.112;11.530;2023-04-24T04:49:26;1.90;;;1.40;;
35364;SDS011;21464;48.112;11.530;2023-04-24T04:51:54;1.20;;;0.93;;
35364;SDS011;21464;48.112;11.530;2023-04-24T04:54:21;1.00;;;0.90;;
35364;SDS011;21464;48.112;11.530;2023-04-24T04:56:49;0.63;;;0.63;;
35364;SDS011;21464;48.112;11.530;2023-04-24T04:59:16;0.97;;;0.97;;
35364;SDS011;21464;48.112;11.530;2023-04-24T05:01:42;3.30;;;0.90;;
35364;SDS011;21464;48.112;11.530;2023-04-24T05:04:11;0.70;;;0.70;;
35364;SDS011;21464;48.112;11.530;2023-04-24T05:06:37;0.60;;;0.60;;
35364;SDS011;21464;48.112;11.530;2023-04-24T05:09:05;1.90;;;0.90;;
35364;SDS011;21464;48.112;11.530;2023-04-24T05:11:39;1.60;;;1.20;;
35364;SDS011;21464;48.112;11.530;2023-04-24T05:14:06;2.27;;;1.30;;
35364;SDS011;21464;48.112;11.530;2023-04-24T05:16:35;2.93;;;2.23;;
35364;SDS011;21464;48.112;11.530;2023-04-24T05:19:04;1.83;;;1.53;;
35364;SDS011;21464;48.112;11.530;2023-04-24T05:21:35;1.70;;;1.25;;
35364;SDS011;21464;48.112;11.530;2023-04-24T05:24:01;1.27;;;1.13;;
35364;SDS011;21464;48.112;11.530;2023-04-24T05:26:48;0.70;;;0.70;;
35364;SDS011;21464;48.112;11.530;2023-04-24T05:29:18;0.73;;;0.70;;
35364;SDS011;21464;48.112;11.530;2023-04-24T05:31:45;1.75;;;1.58;;
35364;SDS011;21464;48.112;11.530;2023-04-24T05:34:11;1.57;;;1.43;;
35364;SDS011;21464;48.112;11.530;2023-04-24T05:36:42;1.50;;;1.00;;
35364;SDS011;21464;48.112;11.530;2023-04-24T05:39:08;1.15;;;0.82;;
35364;SDS011;21464;48.112;11.530;2023-04-24T05:41:35;1.27;;;1.10;;
35364;SDS011;21464;48.112;11.530;2023-04-24T05:44:01;0.70;;;0.70;;
35364;SDS011;21464;48.112;11.530;2023-04-24T05:46:27;2.20;;;0.67;;
35364;SDS011;21464;48.112;11.530;2023-04-24T05:48:55;1.00;;;1.00;;
35364;SDS011;21464;48.112;11.530;2023-04-24T05:51:21;1.40;;;1.00;;
35364;SDS011;21464;48.112;11.530;2023-04-24T05:53:48;0.70;;;0.70;;
35364;SDS011;21464;48.112;11.530;2023-04-24T05:56:15;0.60;;;0.60;;
35364;SDS011;21464;48.112;11.530;2023-04-24T05:58:41;0.80;;;0.80;;
35364;SDS011;21464;48.112;11.530;2023-04-24T06:01:09;0.40;;;0.40;;
35364;SDS011;21464;48.112;11.530;2023-04-24T06:03:36;0.70;;;0.70;;
35364;SDS011;21464;48.112;11.530;2023-04-24T06:06:03;1.77;;;0.63;;
35364;SDS011;21464;48.112;11.530;2023-04-24T06:08:30;0.60;;;0.52;;
35364;SDS011;21464;48.112;11.530;2023-04-24T06:10:56;0.70;;;0.70;;
35364;SDS011;21464;48.112;11.530;2023-04-24T06:13:23;0.50;;;0.50;;
35364;SDS011;21464;48.112;11.530;2023-04-24T06:16:07;0.90;;;0.90;;
35364;SDS011;21464;48.112;11.530;2023-04-24T06:18:37;2.17;;;1.80;;
35364;SDS011;21464;48.112;11.530;2023-04-24T06:21:04;1.55;;;1.10;;
35364;SDS011;21464;48.112;11.530;2023-04-24T06:23:31;1.30;;;1.20;;
35364;SDS011;21464;48.112;11.530;2023-04-24T06:25:59;0.75;;;0.75;;
35364;SDS011;21464;48.112;11.530;2023-04-24T06:28:25;0.60;;;0.60;;
35364;SDS011;21464;48.112;11.530;2023-04-24T06:30:51;0.80;;;0.80;;
35364;SDS011;21464;48.112;11.530;2023-04-24T06:33:18;1.27;;;0.60;;
35364;SDS011;21464;48.112;11.530;2023-04-24T06:35:44;0.88;;;0.65;;
35364;SDS011;21464;48.112;11.530;2023-04-24T06:38:10;0.60;;;0.60;;
35364;SDS011;21464;48.112;11.530;2023-04-24T06:40:36;0.50;;;0.50;;
35364;SDS011;21464;48.112;11.530;2023-04-24T06:43:03;1.20;;;0.43;;
35364;SDS011;21464;48.112;11.530;2023-04-24T06:45:29;0.60;;;0.60;;
35364;SDS011;21464;48.112;11.530;2023-04-24T06:47:55;0.60;;;0.60;;
35364;SDS011;21464;48.112;11.530;2023-04-24T06:50:22;0.50;;;0.50;;
35364;SDS011;21464;48.112;11.530;2023-04-24T06:52:48;0.77;;;0.77;;
35364;SDS011;21464;48.112;11.530;2023-04-24T06:55:14;0.85;;;0.85;;
35364;SDS011;21464;48.112;11.530;2023-04-24T06:57:43;1.77;;;0.70;;
35364;SDS011;21464;48.112;11.530;2023-04-24T07:00:10;0.47;;;0.47;;
35364;SDS011;21464;48.112;11.530;2023-04-24T07:02:37;1.00;;;0.55;;
35364;SDS011;21464;48.112;11.530;2023-04-24T07:05:04;0.40;;;0.40;;
35364;SDS011;21464;48.112;11.530;2023-04-24T07:07:30;0.60;;;0.60;;
35364;SDS011;21464;48.112;11.530;2023-04-24T07:09:57;0.50;;;0.50;;
35364;SDS011;21464;48.112;11.530;2023-04-24T07:12:23;0.50;;;0.50;;
35364;SDS011;21464;48.112;11.530;2023-04-24T07:14:50;0.50;;;0.50;;
35364;SDS011;21464;48.112;11.530;2023-04-24T07:17:16;0.50;;;0.50;;
35364;SDS011;21464;48.112;11.530;2023-04-24T07:19:42;0.40;;;0.40;;
35364;SDS011;21464;48.112;11.530;2023-04-24T07:22:09;0.63;;;0.60;;
35364;SDS011;21464;48.112;11.530;2023-04-24T07:24:37;0.43;;;0.43;;
35364;SDS011;21464;48.112;11.530;2023-04-24T07:27:03;0.60;;;0.55;;
35364;SDS011;21464;48.112;11.530;2023-04-24T07:29:30;0.47;;;0.47;;
35364;SDS011;21464;48.112;11.530;2023-04-24T07:31:56;0.50;;;0.50;;
35364;SDS011;21464;48.112;11.530;2023-04-24T07:34:22;0.40;;;0.40;;
35364;SDS011;21464;48.112;11.530;2023-04-24T07:36:49;0.90;;;0.65;;
35364;SDS011;21464;48.112;11.530;2023-04-24T07:39:15;0.50;;;0.50;;
35364;SDS011;21464;48.112;11.530;2023-04-24T07:41:41;0.40;;;0.40;;
35364;SDS011;21464;48.112;11.530;2023-04-24T07:44:08;1.05;;;0.60;;
35364;SDS011;21464;48.112;11.530;2023-04-24T07:46:34;0.50;;;0.50;;
35364;SDS011;21464;48.112;11.530;2023-04-24T07:49:00;0.50;;;0.50;;
35364;SDS011;21464;48.112;11.530;2023-04-24T07:51:27;0.30;;;0.30;;
35364;SDS011;21464;48.112;11.530;2023-04-24T07:53:53;0.57;;;0.57;;
35364;SDS011;21464;48.112;11.530;2023-04-24T07:56:20;1.52;;;0.52;;
35364;SDS011;21464;48.112;11.530;2023-04-24T07:58:47;0.50;;;0.50;;
35364;SDS011;21464;48.112;11.530;2023-04-24T08:01:13;0.45;;;0.45;;
35364;SDS011;21464;48.112;11.530;2023-04-24T08:03:39;0.43;;;0.43;;
35364;SDS011;21464;48.112;11.530;2023-04-24T08:06:06;0.47;;;0.47;;
35364;SDS011;21464;48.112;11.530;2023-04-24T08:08:32;0.40;;;0.40;;
35364;SDS011;21464;48.112;11.530;2023-04-24T08:10:58;0.88;;;0.50;;
35364;SDS011;21464;48.112;11.530;2023-04-24T08:13:24;0.40;;;0.40;;
35364;SDS011;21464;48.112;11.530;2023-04-24T08:15:51;1.65;;;0.52;;
35364;SDS011;21464;48.112;11.530;2023-04-24T08:18:17;0.40;;;0.40;;
35364;SDS011;21464;48.112;11.530;2023-04-24T08:20:43;0.50;;;0.50;;
35364;SDS011;21464;48.112;11.530;2023-04-24T08:23:11;0.50;;;0.50;;
35364;SDS011;21464;48.112;11.530;2023-04-24T08:25:37;0.60;;;0.60;;
35364;SDS011;21464;48.112;11.530;2023-04-24T08:28:05;0.65;;;0.50;;
35364;SDS011;21464;48.112;11.530;2023-04-24T08:30:31;0.50;;;0.50;;
35364;SDS011;21464;48.112;11.530;2023-04-24T08:32:58;0.40;;;0.40;;
35364;SDS011;21464;48.112;11.530;2023-04-24T08:35:24;0.30;;;0.30;;
35364;SDS011;21464;48.112;11.530;2023-04-24T08:37:51;0.40;;;0.40;;
35364;SDS011;21464;48.112;11.530;2023-04-24T08:40:18;1.90;;;0.80;;
35364;SDS011;21464;48.112;11.530;2023-04-24T08:42:48;1.33;;;1.23;;
35364;SDS011;21464;48.112;11.530;2023-04-24T08:45:15;1.13;;;1.07;;
35364;SDS011;21464;48.112;11.530;2023-04-24T08:47:42;0.80;;;0.80;;
35364;SDS011;21464;48.112;11.530;2023-04-24T08:50:08;1.10;;;1.10;;
35364;SDS011;21464;48.112;11.530;2023-04-24T08:52:35;1.25;;;1.15;;
35364;SDS011;21464;48.112;11.530;2023-04-24T08:55:02;0.65;;;0.65;;
35364;SDS011;21464;48.112;11.530;2023-04-24T08:57:29;0.90;;;0.90;;
35364;SDS011;21464;48.112;11.530;2023-04-24T08:59:57;1.05;;;1.05;;
35364;SDS011;21464;48.112;11.530;2023-04-24T09:02:25;0.80;;;0.80;;
35364;SDS011;21464;48.112;11.530;2023-04-24T09:04:52;1.00;;;1.00;;
35364;SDS011;21464;48.112;11.530;2023-04-24T09:07:19;1.05;;;1.02;;
35364;SDS011;21464;48.112;11.530;2023-04-24T09:09:45;0.90;;;0.90;;
35364;SDS011;21464;48.112;11.530;2023-04-24T09:12:12;1.00;;;1.00;;
35364;SDS011;21464;48.112;11.530;2023-04-24T09:14:38;1.47;;;1.30;;
35364;SDS011;21464;48.112;11.530;2023-04-24T09:17:08;1.50;;;1.00;;
35364;SDS011;21464;48.112;11.530;2023-04-24T09:19:34;1.00;;;1.00;;
35364;SDS011;21464;48.112;11.530;2023-04-24T09:22:04;1.42;;;0.70;;
35364;SDS011;21464;48.112;11.530;2023-04-24T09:24:31;0.75;;;0.75;;
35364;SDS011;21464;48.112;11.530;2023-04-24T09:26:58;1.67;;;1.13;;
35364;SDS011;21464;48.112;11.530;2023-04-24T09:29:24;1.30;;;1.20;;
35364;SDS011;21464;48.112;11.530;2023-04-24T09:31:50;1.02;;;1.02;;
35364;SDS011;21464;48.112;11.530;2023-04-24T09:34:24;1.20;;;1.10;;
35364;SDS011;21464;48.112;11.530;2023-04-24T09:36:51;1.88;;;1.00;;
35364;SDS011;21464;48.112;11.530;2023-04-24T09:39:18;1.05;;;1.05;;
35364;SDS011;21464;48.112;11.530;2023-04-24T09:44:21;1.92;;;1.23;;
35364;SDS011;21464;48.112;11.530;2023-04-24T09:46:50;1.30;;;1.30;;
35364;SDS011;21464;48.112;11.530;2023-04-24T09:49:23;1.25;;;1.00;;
35364;SDS011;21464;48.112;11.530;2023-04-24T09:52:06;0.75;;;0.75;;
35364;SDS011;21464;48.112;11.530;2023-04-24T09:54:34;0.75;;;0.75;;
35364;SDS011;21464;48.112;11.530;2023-04-24T09:57:02;0.85;;;0.85;;
35364;SDS011;21464;48.112;11.530;2023-04-24T09:59:29;1.50;;;1.13;;
35364;SDS011;21464;48.112;11.530;2023-04-24T10:01:55;1.42;;;1.33;;
35364;SDS011;21464;48.112;11.530;2023-04-24T10:04:25;0.88;;;0.82;;
35364;SDS011;21464;48.112;11.530;2023-04-24T10:06:53;2.72;;;1.05;;
35364;SDS011;21464;48.112;11.530;2023-04-24T10:09:21;1.60;;;1.30;;
35364;SDS011;21464;48.112;11.530;2023-04-24T10:11:49;1.30;;;1.30;;
35364;SDS011;21464;48.112;11.530;2023-04-24T10:14:18;1.30;;;1.20;;
35364;SDS011;21464;48.112;11.530;2023-04-24T10:16:46;1.00;;;1.00;;
35364;SDS011;21464;48.112;11.530;2023-04-24T10:19:13;1.38;;;1.38;;
35364;SDS011;21464;48.112;11.530;2023-04-24T10:21:41;1.20;;;1.10;;
35364;SDS011;21464;48.112;11.530;2023-04-24T10:24:12;1.15;;;1.10;;
35364;SDS011;21464;48.112;11.530;2023-04-24T10:26:40;1.02;;;1.02;;
35364;SDS011;21464;48.112;11.530;2023-04-24T10:29:06;1.23;;;1.23;;
35364;SDS011;21464;48.112;11.530;2023-04-24T10:31:37;1.25;;;1.20;;
35364;SDS011;21464;48.112;11.530;2023-04-24T10:34:05;1.27;;;1.27;;
35364;SDS011;21464;48.112;11.530;2023-04-24T10:36:32;1.58;;;1.50;;
35364;SDS011;21464;48.112;11.530;2023-04-24T10:39:01;1.95;;;1.40;;
35364;SDS011;21464;48.112;11.530;2023-04-24T10:41:29;1.30;;;1.30;;
35364;SDS011;21464;48.112;11.530;2023-04-24T10:46:36;1.02;;;0.98;;
35364;SDS011;21464;48.112;11.530;2023-04-24T10:49:06;1.50;;;1.40;;
35364;SDS011;21464;48.112;11.530;2023-04-24T10:51:49;0.90;;;0.90;;
35364;SDS011;21464;48.112;11.530;2023-04-24T10:54:23;0.85;;;0.85;;
35364;SDS011;21464;48.112;11.530;2023-04-24T10:56:52;1.00;;;1.00;;
35364;SDS011;21464;48.112;11.530;2023-04-24T10:59:26;0.93;;;0.93;;
35364;SDS011;21464;48.112;11.530;2023-04-24T11:01:54;1.07;;;0.90;;
35364;SDS011;21464;48.112;11.530;2023-04-24T11:04:32;1.88;;;0.68;;
35364;SDS011;21464;48.112;11.530;2023-04-24T11:06:59;1.00;;;1.00;;
35364;SDS011;21464;48.112;11.530;2023-04-24T11:09:32;1.03;;;0.80;;
35364;SDS011;21464;48.112;11.530;2023-04-24T11:12:05;1.00;;;0.90;;
35364;SDS011;21464;48.112;11.530;2023-04-24T11:20:16;1.02;;;1.02;;
35364;SDS011;21464;48.112;11.530;2023-04-24T11:22:43;0.93;;;0.90;;
35364;SDS011;21464;48.112;11.530;2023-04-24T11:25:09;0.85;;;0.85;;
35364;SDS011;21464;48.112;11.530;2023-04-24T11:27:41;1.50;;;0.98;;
35364;SDS011;21464;48.112;11.530;2023-04-24T11:30:10;1.05;;;1.05;;
35364;SDS011;21464;48.112;11.530;2023-04-24T11:32:37;0.90;;;0.90;;
35364;SDS011;21464;48.112;11.530;2023-04-24T11:35:20;1.27;;;0.90;;
35364;SDS011;21464;48.112;11.530;2023-04-24T11:37:52;1.80;;;1.60;;
35364;SDS011;21464;48.112;11.530;2023-04-24T11:40:19;1.52;;;1.42;;
35364;SDS011;21464;48.112;11.530;2023-04-24T11:42:51;1.85;;;1.38;;
35364;SDS011;21464;48.112;11.530;2023-04-24T11:45:18;1.30;;;1.20;;
35364;SDS011;21464;48.112;11.530;2023-04-24T11:47:47;1.70;;;1.60;;
35364;SDS011;21464;48.112;11.530;2023-04-24T11:50:15;1.73;;;1.50;;
35364;SDS011;21464;48.112;11.530;2023-04-24T11:52:46;1.50;;;1.40;;
35364;SDS011;21464;48.112;11.530;2023-04-24T11:57:46;2.05;;;1.00;;
35364;SDS011;21464;48.112;11.530;2023-04-24T12:00:17;1.00;;;1.00;;
35364;SDS011;21464;48.112;11.530;2023-04-24T12:02:44;2.10;;;1.02;;
35364;SDS011;21464;48.112;11.530;2023-04-24T12:05:24;0.73;;;0.73;;
35364;SDS011;21464;48.112;11.530;2023-04-24T12:08:05;1.00;;;1.00;;
35364;SDS011;21464;48.112;11.530;2023-04-24T12:10:32;0.95;;;0.85;;
35364;SDS011;21464;48.112;11.530;2023-04-24T12:12:59;1.20;;;1.00;;
35364;SDS011;21464;48.112;11.530;2023-04-24T12:15:26;0.50;;;0.50;;
35364;SDS011;21464;48.112;11.530;2023-04-24T12:17:53;1.90;;;1.20;;
35364;SDS011;21464;48.112;11.530;2023-04-24T12:20:30;0.77;;;0.77;;
35364;SDS011;21464;48.112;11.530;2023-04-24T12:22:58;1.20;;;1.20;;
35364;SDS011;21464;48.112;11.530;2023-04-24T12:25:26;1.83;;;1.10;;
35364;SDS011;21464;48.112;11.530;2023-04-24T12:28:17;1.17;;;1.17;;
35364;SDS011;21464;48.112;11.530;2023-04-24T12:30:44;1.20;;;1.10;;
35364;SDS011;21464;48.112;11.530;2023-04-24T12:33:20;2.00;;;1.90;;
35364;SDS011;21464;48.112;11.530;2023-04-24T12:35:53;1.00;;;1.00;;
35364;SDS011;21464;48.112;11.530;2023-04-24T12:38:24;2.10;;;1.20;;
35364;SDS011;21464;48.112;11.530;2023-04-24T12:43:51;0.80;;;0.80;;
35364;SDS011;21464;48.112;11.530;2023-04-24T12:46:18;1.00;;;1.00;;
35364;SDS011;21464;48.112;11.530;2023-04-24T12:48:44;0.93;;;0.85;;
35364;SDS011;21464;48.112;11.530;2023-04-24T12:51:15;2.00;;;1.13;;
35364;SDS011;21464;48.112;11.530;2023-04-24T12:53:42;2.40;;;1.10;;
35364;SDS011;21464;48.112;11.530;2023-04-24T12:56:08;0.93;;;0.93;;
35364;SDS011;21464;48.112;11.530;2023-04-24T12:58:35;1.77;;;1.27;;
35364;SDS011;21464;48.112;11.530;2023-04-24T13:01:01;1.15;;;1.10;;
35364;SDS011;21464;48.112;11.530;2023-04-24T13:03:28;2.95;;;1.40;;
35364;SDS011;21464;48.112;11.530;2023-04-24T13:05:54;0.68;;;0.68;;
35364;SDS011;21464;48.112;11.530;2023-04-24T13:08:21;1.20;;;1.10;;
35364;SDS011;21464;48.112;11.530;2023-04-24T13:10:47;1.92;;;1.30;;
35364;SDS011;21464;48.112;11.530;2023-04-24T13:13:13;2.72;;;1.65;;
35364;SDS011;21464;48.112;11.530;2023-04-24T13:15:40;1.67;;;1.10;;
35364;SDS011;21464;48.112;11.530;2023-04-24T13:18:06;1.65;;;1.30;;
35364;SDS011;21464;48.112;11.530;2023-04-24T13:20:32;1.48;;;1.38;;
35364;SDS011;21464;48.112;11.530;2023-04-24T13:22:58;3.38;;;1.25;;
35364;SDS011;21464;48.112;11.530;2023-04-24T13:25:24;1.38;;;1.27;;
35364;SDS011;21464;48.112;11.530;2023-04-24T13:27:50;1.45;;;1.30;;
35364;SDS011;21464;48.112;11.530;2023-04-24T13:30:17;1.35;;;1.25;;
35364;SDS011;21464;48.112;11.530;2023-04-24T13:32:44;0.95;;;0.95;;
35364;SDS011;21464;48.112;11.530;2023-04-24T13:35:10;2.80;;;1.27;;
35364;SDS011;21464;48.112;11.530;2023-04-24T13:37:36;1.58;;;1.48;;
35364;SDS011;21464;48.112;11.530;2023-04-24T13:40:02;1.60;;;1.50;;
35364;SDS011;21464;48.112;11.530;2023-04-24T13:42:31;4.40;;;1.45;;
35364;SDS011;21464;48.112;11.530;2023-04-24T13:44:57;1.30;;;1.20;;
35364;SDS011;21464;48.112;11.530;2023-04-24T13:47:24;1.20;;;1.17;;
35364;SDS011;21464;48.112;11.530;2023-04-24T13:49:50;1.27;;;0.68;;
35364;SDS011;21464;48.112;11.530;2023-04-24T13:52:16;1.60;;;1.50;;
35364;SDS011;21464;48.112;11.530;2023-04-24T13:54:42;1.85;;;1.63;;
35364;SDS011;21464;48.112;11.530;2023-04-24T13:57:09;1.95;;;1.38;;
35364;SDS011;21464;48.112;11.530;2023-04-24T13:59:35;1.52;;;1.40;;
35364;SDS011;21464;48.112;11.530;2023-04-24T14:02:01;1.52;;;1.42;;
35364;SDS011;21464;48.112;11.530;2023-04-24T14:04:27;2.00;;;1.40;;
35364;SDS011;21464;48.112;11.530;2023-04-24T14:06:53;1.63;;;1.52;;
35364;SDS011;21464;48.112;11.530;2023-04-24T14:09:20;1.25;;;1.25;;
35364;SDS011;21464;48.112;11.530;2023-04-24T14:11:46;3.20;;;2.00;;
35364;SDS011;21464;48.112;11.530;2023-04-24T14:14:12;1.92;;;1.40;;
35364;SDS011;21464;48.112;11.530;2023-04-24T14:16:38;1.85;;;1.27;;
35364;SDS011;21464;48.112;11.530;2023-04-24T14:19:05;1.30;;;1.20;;
35364;SDS011;21464;48.112;11.530;2023-04-24T14:21:32;1.80;;;1.52;;
35364;SDS011;21464;48.112;11.530;2023-04-24T14:23:58;1.48;;;1.38;;
35364;SDS011;21464;48.112;11.530;2023-04-24T14:26:25;0.90;;;0.90;;
35364;SDS011;21464;48.112;11.530;2023-04-24T14:28:51;1.40;;;1.30;;
35364;SDS011;21464;48.112;11.530;2023-04-24T14:31:18;1.10;;;0.82;;
35364;SDS011;21464;48.112;11.530;2023-04-24T14:33:45;1.40;;;1.30;;
35364;SDS011;21464;48.112;11.530;2023-04-24T14:36:11;2.08;;;1.60;;
35364;SDS011;21464;48.112;11.530;2023-04-24T14:38:37;1.55;;;1.45;;
35364;SDS011;21464;48.112;11.530;2023-04-24T14:41:04;1.27;;;1.13;;
35364;SDS011;21464;48.112;11.530;2023-04-24T14:43:35;1.48;;;1.33;;
35364;SDS011;21464;48.112;11.530;2023-04-24T14:46:02;1.30;;;1.30;;
35364;SDS011;21464;48.112;11.530;2023-04-24T14:48:29;1.17;;;1.10;;
35364;SDS011;21464;48.112;11.530;2023-04-24T14:50:55;2.25;;;1.70;;
35364;SDS011;21464;48.112;11.530;2023-04-24T14:53:22;1.58;;;1.00;;